sensor_id;sensor_type;location;lat;lon;timestamp;temperature;humidity
37518;DHT22;23366;52.498;13.446;2022-11-27T00:01:55;8.30;99.90
37518;DHT22;23366;52.498;13.446;2022-11-27T00:04:21;8.30;99.90
37518;DHT22;23366;52.498;13.446;2022-11-27T00:06:46;8.40;99.90
37518;DHT22;23366;52.498;13.446;2022-11-27T00:09:14;8.40;99.90
37518;DHT22;23366;52.498;13.446;2022-11-27T00:11:39;8.30;99.90
37518;DHT22;23366;52.498;13.446;2022-11-27T00:14:06;8.30;99.90
37518;DHT22;23366;52.498;13.446;2022-11-27T00:16:32;8.30;99.90
37518;DHT22;23366;52.498;13.446;2022-11-27T00:18:58;8.30;99.90
37518;DHT22;23366;52.498;13.446;2022-11-27T00:21:26;8.30;99.90
37518;DHT22;23366;52.498;13.446;2022-11-27T00:23:54;8.40;99.90
37518;DHT22;23366;52.498;13.446;2022-11-27T00:26:21;8.40;99.90
37518;DHT22;23366;52.498;13.446;2022-11-27T00:28:47;8.30;99.90
37518;DHT22;23366;52.498;13.446;2022-11-27T00:31:18;8.30;99.90
37518;DHT22;23366;52.498;13.446;2022-11-27T00:33:44;8.40;99.90
37518;DHT22;23366;52.498;13.446;2022-11-27T00:36:10;8.40;99.90
37518;DHT22;23366;52.498;13.446;2022-11-27T00:38:36;8.30;99.90
37518;DHT22;23366;52.498;13.446;2022-11-27T00:41:11;8.30;99.90
37518;DHT22;23366;52.498;13.446;2022-11-27T00:43:39;8.30;99.90
37518;DHT22;23366;52.498;13.446;2022-11-27T00:46:05;8.30;99.90
37518;DHT22;23366;52.498;13.446;2022-11-27T00:48:30;8.30;99.90
37518;DHT22;23366;52.498;13.446;2022-11-27T00:51:00;8.30;99.90
37518;DHT22;23366;52.498;13.446;2022-11-27T00:53:26;8.30;99.90
37518;DHT22;23366;52.498;13.446;2022-11-27T00:55:52;8.30;99.90
37518;DHT22;23366;52.498;13.446;2022-11-27T00:58:18;8.20;99.90
37518;DHT22;23366;52.498;13.446;2022-11-27T01:00:43;8.10;99.90
37518;DHT22;23366;52.498;13.446;2022-11-27T01:03:09;8.10;99.90
37518;DHT22;23366;52.498;13.446;2022-11-27T01:05:35;8.10;99.90
37518;DHT22;23366;52.498;13.446;2022-11-27T01:08:02;8.20;99.90
37518;DHT22;23366;52.498;13.446;2022-11-27T01:10:27;8.10;99.90
37518;DHT22;23366;52.498;13.446;2022-11-27T01:12:53;8.20;99.90
37518;DHT22;23366;52.498;13.446;2022-11-27T01:15:18;8.20;99.90
37518;DHT22;23366;52.498;13.446;2022-11-27T01:17:44;8.20;99.90
37518;DHT22;23366;52.498;13.446;2022-11-27T01:20:10;8.20;99.90
37518;DHT22;23366;52.498;13.446;2022-11-27T01:22:35;8.20;99.90
37518;DHT22;23366;52.498;13.446;2022-11-27T01:25:01;8.20;99.90
37518;DHT22;23366;52.498;13.446;2022-11-27T01:27:26;8.20;99.90
37518;DHT22;23366;52.498;13.446;2022-11-27T01:29:52;8.10;99.90
37518;DHT22;23366;52.498;13.446;2022-11-27T01:32:17;8.20;99.90
37518;DHT22;23366;52.498;13.446;2022-11-27T01:34:43;8.20;99.90
37518;DHT22;23366;52.498;13.446;2022-11-27T01:37:08;8.10;99.90
37518;DHT22;23366;52.498;13.446;2022-11-27T01:39:34;8.00;99.90
37518;DHT22;23366;52.498;13.446;2022-11-27T01:41:59;8.10;99.90
37518;DHT22;23366;52.498;13.446;2022-11-27T01:46:54;8.10;99.90
37518;DHT22;23366;52.498;13.446;2022-11-27T01:49:37;8.00;99.90
37518;DHT22;23366;52.498;13.446;2022-11-27T01:52:20;8.00;99.90
37518;DHT22;23366;52.498;13.446;2022-11-27T01:54:56;8.10;99.90
37518;DHT22;23366;52.498;13.446;2022-11-27T01:57:29;8.10;99.90
37518;DHT22;23366;52.498;13.446;2022-11-27T01:59:58;8.10;99.90
37518;DHT22;23366;52.498;13.446;2022-11-27T02:02:24;8.00;99.90
37518;DHT22;23366;52.498;13.446;2022-11-27T02:04:50;8.10;99.90
37518;DHT22;23366;52.498;13.446;2022-11-27T02:07:16;8.00;99.90
37518;DHT22;23366;52.498;13.446;2022-11-27T02:09:42;8.10;99.90
37518;DHT22;23366;52.498;13.446;2022-11-27T02:12:20;8.00;99.90
37518;DHT22;23366;52.498;13.446;2022-11-27T02:18:13;7.90;99.90
37518;DHT22;23366;52.498;13.446;2022-11-27T02:26:09;7.90;99.90
37518;DHT22;23366;52.498;13.446;2022-11-27T02:28:53;8.00;99.90
37518;DHT22;23366;52.498;13.446;2022-11-27T02:31:48;7.90;99.90
37518;DHT22;23366;52.498;13.446;2022-11-27T02:39:56;7.80;99.90
37518;DHT22;23366;52.498;13.446;2022-11-27T02:42:26;7.70;99.90
37518;DHT22;23366;52.498;13.446;2022-11-27T02:44:58;7.70;99.90
37518;DHT22;23366;52.498;13.446;2022-11-27T02:47:26;7.60;99.90
37518;DHT22;23366;52.498;13.446;2022-11-27T02:49:52;7.70;99.90
37518;DHT22;23366;52.498;13.446;2022-11-27T02:52:22;7.70;99.90
37518;DHT22;23366;52.498;13.446;2022-11-27T02:54:51;7.60;99.90
37518;DHT22;23366;52.498;13.446;2022-11-27T02:57:19;7.70;99.90
37518;DHT22;23366;52.498;13.446;2022-11-27T02:59:47;7.70;99.90
37518;DHT22;23366;52.498;13.446;2022-11-27T03:02:20;7.70;99.90
37518;DHT22;23366;52.498;13.446;2022-11-27T03:04:50;7.60;99.90
37518;DHT22;23366;52.498;13.446;2022-11-27T03:08:00;7.60;99.90
37518;DHT22;23366;52.498;13.446;2022-11-27T03:10:39;7.60;99.90
37518;DHT22;23366;52.498;13.446;2022-11-27T03:13:07;7.60;99.90
37518;DHT22;23366;52.498;13.446;2022-11-27T03:15:55;7.60;99.90
37518;DHT22;23366;52.498;13.446;2022-11-27T03:21:30;7.60;99.90
37518;DHT22;23366;52.498;13.446;2022-11-27T03:23:57;7.50;99.90
37518;DHT22;23366;52.498;13.446;2022-11-27T03:26:23;7.60;99.90
37518;DHT22;23366;52.498;13.446;2022-11-27T03:28:50;7.50;99.90
37518;DHT22;23366;52.498;13.446;2022-11-27T03:31:17;7.50;99.90
37518;DHT22;23366;52.498;13.446;2022-11-27T03:33:42;7.50;99.90
37518;DHT22;23366;52.498;13.446;2022-11-27T03:36:12;7.50;99.90
37518;DHT22;23366;52.498;13.446;2022-11-27T03:38:38;7.40;99.90
37518;DHT22;23366;52.498;13.446;2022-11-27T03:41:17;7.50;99.90
37518;DHT22;23366;52.498;13.446;2022-11-27T03:44:04;7.50;99.90
37518;DHT22;23366;52.498;13.446;2022-11-27T03:52:26;7.50;99.90
37518;DHT22;23366;52.498;13.446;2022-11-27T03:57:45;7.40;99.90
37518;DHT22;23366;52.498;13.446;2022-11-27T04:00:15;7.40;99.90
37518;DHT22;23366;52.498;13.446;2022-11-27T04:02:48;7.50;99.90
37518;DHT22;23366;52.498;13.446;2022-11-27T04:05:14;7.40;99.90
37518;DHT22;23366;52.498;13.446;2022-11-27T04:07:40;7.40;99.90
37518;DHT22;23366;52.498;13.446;2022-11-27T04:10:07;7.40;99.90
37518;DHT22;23366;52.498;13.446;2022-11-27T04:12:33;7.30;99.90
37518;DHT22;23366;52.498;13.446;2022-11-27T04:14:59;7.40;99.90
37518;DHT22;23366;52.498;13.446;2022-11-27T04:17:24;7.30;99.90
37518;DHT22;23366;52.498;13.446;2022-11-27T04:19:50;7.30;99.90
37518;DHT22;23366;52.498;13.446;2022-11-27T04:22:15;7.30;99.90
37518;DHT22;23366;52.498;13.446;2022-11-27T04:24:41;7.30;99.90
37518;DHT22;23366;52.498;13.446;2022-11-27T04:27:06;7.30;99.90
37518;DHT22;23366;52.498;13.446;2022-11-27T04:29:33;7.20;99.90
37518;DHT22;23366;52.498;13.446;2022-11-27T04:31:58;7.10;99.90
37518;DHT22;23366;52.498;13.446;2022-11-27T04:34:24;7.20;99.90
37518;DHT22;23366;52.498;13.446;2022-11-27T04:36:49;7.20;99.90
37518;DHT22;23366;52.498;13.446;2022-11-27T04:39:15;7.10;99.90
37518;DHT22;23366;52.498;13.446;2022-11-27T04:41:40;7.10;99.90
37518;DHT22;23366;52.498;13.446;2022-11-27T04:44:06;7.00;99.90
37518;DHT22;23366;52.498;13.446;2022-11-27T04:46:31;7.00;99.90
37518;DHT22;23366;52.498;13.446;2022-11-27T04:48:57;7.00;99.90
37518;DHT22;23366;52.498;13.446;2022-11-27T04:51:22;7.00;99.90
37518;DHT22;23366;52.498;13.446;2022-11-27T04:53:48;6.90;99.90
37518;DHT22;23366;52.498;13.446;2022-11-27T04:56:13;6.90;99.90
37518;DHT22;23366;52.498;13.446;2022-11-27T04:58:39;6.80;99.90
37518;DHT22;23366;52.498;13.446;2022-11-27T05:01:07;6.70;99.90
37518;DHT22;23366;52.498;13.446;2022-11-27T05:03:33;6.80;99.90
37518;DHT22;23366;52.498;13.446;2022-11-27T05:05:58;6.70;99.90
37518;DHT22;23366;52.498;13.446;2022-11-27T05:08:25;6.70;99.90
37518;DHT22;23366;52.498;13.446;2022-11-27T05:11:01;6.60;99.90
37518;DHT22;23366;52.498;13.446;2022-11-27T05:13:27;6.60;99.90
37518;DHT22;23366;52.498;13.446;2022-11-27T05:15:53;6.50;99.90
37518;DHT22;23366;52.498;13.446;2022-11-27T05:18:18;6.40;99.90
37518;DHT22;23366;52.498;13.446;2022-11-27T05:20:44;6.40;99.90
37518;DHT22;23366;52.498;13.446;2022-11-27T05:23:09;6.40;99.90
37518;DHT22;23366;52.498;13.446;2022-11-27T05:25:35;6.20;99.90
37518;DHT22;23366;52.498;13.446;2022-11-27T05:28:00;6.30;99.90
37518;DHT22;23366;52.498;13.446;2022-11-27T05:30:26;6.20;99.90
37518;DHT22;23366;52.498;13.446;2022-11-27T05:32:51;6.20;99.90
37518;DHT22;23366;52.498;13.446;2022-11-27T05:35:17;6.10;99.90
37518;DHT22;23366;52.498;13.446;2022-11-27T05:37:42;6.10;99.90
37518;DHT22;23366;52.498;13.446;2022-11-27T05:40:08;6.10;99.90
37518;DHT22;23366;52.498;13.446;2022-11-27T05:42:33;6.10;99.90
37518;DHT22;23366;52.498;13.446;2022-11-27T05:44:59;6.00;99.90
37518;DHT22;23366;52.498;13.446;2022-11-27T05:47:25;5.90;99.90
37518;DHT22;23366;52.498;13.446;2022-11-27T05:49:50;5.80;99.90
37518;DHT22;23366;52.498;13.446;2022-11-27T05:52:16;5.80;99.90
37518;DHT22;23366;52.498;13.446;2022-11-27T05:54:41;5.80;99.90
37518;DHT22;23366;52.498;13.446;2022-11-27T05:57:07;5.70;99.90
37518;DHT22;23366;52.498;13.446;2022-11-27T05:59:32;5.70;99.90
37518;DHT22;23366;52.498;13.446;2022-11-27T06:01:58;5.60;99.90
37518;DHT22;23366;52.498;13.446;2022-11-27T06:04:23;5.60;99.90
37518;DHT22;23366;52.498;13.446;2022-11-27T06:06:49;5.60;99.90
37518;DHT22;23366;52.498;13.446;2022-11-27T06:09:14;5.50;99.90
37518;DHT22;23366;52.498;13.446;2022-11-27T06:11:40;5.50;99.90
37518;DHT22;23366;52.498;13.446;2022-11-27T06:14:07;5.50;99.90
37518;DHT22;23366;52.498;13.446;2022-11-27T06:16:33;5.50;99.90
37518;DHT22;23366;52.498;13.446;2022-11-27T06:18:58;5.40;99.90
37518;DHT22;23366;52.498;13.446;2022-11-27T06:21:24;5.40;99.90
37518;DHT22;23366;52.498;13.446;2022-11-27T06:23:53;5.50;99.90
37518;DHT22;23366;52.498;13.446;2022-11-27T06:26:22;5.40;99.90
37518;DHT22;23366;52.498;13.446;2022-11-27T06:28:49;5.40;99.90
37518;DHT22;23366;52.498;13.446;2022-11-27T06:31:17;5.30;99.90
37518;DHT22;23366;52.498;13.446;2022-11-27T06:33:44;5.30;99.90
37518;DHT22;23366;52.498;13.446;2022-11-27T06:36:10;5.30;99.90
37518;DHT22;23366;52.498;13.446;2022-11-27T06:38:36;5.30;99.90
37518;DHT22;23366;52.498;13.446;2022-11-27T06:41:10;5.40;99.90
37518;DHT22;23366;52.498;13.446;2022-11-27T06:43:36;5.40;99.90
37518;DHT22;23366;52.498;13.446;2022-11-27T06:46:02;5.40;99.90
37518;DHT22;23366;52.498;13.446;2022-11-27T06:48:28;5.40;99.90
37518;DHT22;23366;52.498;13.446;2022-11-27T06:51:01;5.40;99.90
37518;DHT22;23366;52.498;13.446;2022-11-27T06:53:27;5.30;99.90
37518;DHT22;23366;52.498;13.446;2022-11-27T06:55:53;5.30;99.90
37518;DHT22;23366;52.498;13.446;2022-11-27T06:58:19;5.30;99.90
37518;DHT22;23366;52.498;13.446;2022-11-27T07:00:44;5.30;99.90
37518;DHT22;23366;52.498;13.446;2022-11-27T07:03:09;5.30;99.90
37518;DHT22;23366;52.498;13.446;2022-11-27T07:05:35;5.30;99.90
37518;DHT22;23366;52.498;13.446;2022-11-27T07:08:01;5.30;99.90
37518;DHT22;23366;52.498;13.446;2022-11-27T07:10:26;5.30;99.90
37518;DHT22;23366;52.498;13.446;2022-11-27T07:12:52;5.30;99.90
37518;DHT22;23366;52.498;13.446;2022-11-27T07:15:17;5.30;99.90
37518;DHT22;23366;52.498;13.446;2022-11-27T07:17:43;5.40;99.90
37518;DHT22;23366;52.498;13.446;2022-11-27T07:20:09;5.50;99.90
37518;DHT22;23366;52.498;13.446;2022-11-27T07:22:34;5.50;99.90
37518;DHT22;23366;52.498;13.446;2022-11-27T07:25:00;5.50;99.90
37518;DHT22;23366;52.498;13.446;2022-11-27T07:27:25;5.50;99.90
37518;DHT22;23366;52.498;13.446;2022-11-27T07:29:51;5.60;99.90
37518;DHT22;23366;52.498;13.446;2022-11-27T07:32:16;5.60;99.90
37518;DHT22;23366;52.498;13.446;2022-11-27T07:34:42;5.50;99.90
37518;DHT22;23366;52.498;13.446;2022-11-27T07:37:07;5.60;99.90
37518;DHT22;23366;52.498;13.446;2022-11-27T07:39:33;5.60;99.90
37518;DHT22;23366;52.498;13.446;2022-11-27T07:41:58;5.70;99.90
37518;DHT22;23366;52.498;13.446;2022-11-27T07:44:24;5.70;99.90
37518;DHT22;23366;52.498;13.446;2022-11-27T07:46:49;5.70;99.90
37518;DHT22;23366;52.498;13.446;2022-11-27T07:49:15;5.70;99.90
37518;DHT22;23366;52.498;13.446;2022-11-27T07:51:40;5.70;99.90
37518;DHT22;23366;52.498;13.446;2022-11-27T07:54:06;5.80;99.90
37518;DHT22;23366;52.498;13.446;2022-11-27T07:56:31;5.90;99.90
37518;DHT22;23366;52.498;13.446;2022-11-27T07:58:57;6.00;99.90
37518;DHT22;23366;52.498;13.446;2022-11-27T08:01:23;6.10;99.90
37518;DHT22;23366;52.498;13.446;2022-11-27T08:03:48;6.20;99.90
37518;DHT22;23366;52.498;13.446;2022-11-27T08:06:22;6.20;99.90
37518;DHT22;23366;52.498;13.446;2022-11-27T08:08:49;6.20;99.90
37518;DHT22;23366;52.498;13.446;2022-11-27T08:11:29;6.30;99.90
37518;DHT22;23366;52.498;13.446;2022-11-27T08:13:59;6.20;99.90
37518;DHT22;23366;52.498;13.446;2022-11-27T08:16:25;6.20;99.90
37518;DHT22;23366;52.498;13.446;2022-11-27T08:18:51;6.20;99.90
37518;DHT22;23366;52.498;13.446;2022-11-27T08:21:17;6.20;99.90
37518;DHT22;23366;52.498;13.446;2022-11-27T08:23:43;6.30;99.90
37518;DHT22;23366;52.498;13.446;2022-11-27T08:26:09;6.30;99.90
37518;DHT22;23366;52.498;13.446;2022-11-27T08:28:36;6.30;99.90
37518;DHT22;23366;52.498;13.446;2022-11-27T08:31:03;6.40;99.90
37518;DHT22;23366;52.498;13.446;2022-11-27T08:33:29;6.40;99.90
37518;DHT22;23366;52.498;13.446;2022-11-27T08:35:54;6.50;99.90
37518;DHT22;23366;52.498;13.446;2022-11-27T08:38:20;6.60;99.90
37518;DHT22;23366;52.498;13.446;2022-11-27T08:40:57;6.50;99.90
37518;DHT22;23366;52.498;13.446;2022-11-27T08:43:23;6.60;99.90
37518;DHT22;23366;52.498;13.446;2022-11-27T08:45:49;6.60;99.90
37518;DHT22;23366;52.498;13.446;2022-11-27T08:48:15;6.60;99.90
37518;DHT22;23366;52.498;13.446;2022-11-27T08:50:40;6.60;99.90
37518;DHT22;23366;52.498;13.446;2022-11-27T08:53:06;6.60;99.90
37518;DHT22;23366;52.498;13.446;2022-11-27T08:55:31;6.60;99.90
37518;DHT22;23366;52.498;13.446;2022-11-27T08:57:57;6.60;99.90
37518;DHT22;23366;52.498;13.446;2022-11-27T09:00:23;6.60;99.90
37518;DHT22;23366;52.498;13.446;2022-11-27T09:02:48;6.70;99.90
37518;DHT22;23366;52.498;13.446;2022-11-27T09:05:14;6.70;99.90
37518;DHT22;23366;52.498;13.446;2022-11-27T09:07:39;6.70;99.90
37518;DHT22;23366;52.498;13.446;2022-11-27T09:10:08;6.80;99.90
37518;DHT22;23366;52.498;13.446;2022-11-27T09:12:34;6.80;99.90
37518;DHT22;23366;52.498;13.446;2022-11-27T09:15:00;6.80;99.90
37518;DHT22;23366;52.498;13.446;2022-11-27T09:17:25;6.90;99.90
37518;DHT22;23366;52.498;13.446;2022-11-27T09:19:52;6.80;99.90
37518;DHT22;23366;52.498;13.446;2022-11-27T09:22:18;6.90;99.90
37518;DHT22;23366;52.498;13.446;2022-11-27T09:24:43;6.90;99.90
37518;DHT22;23366;52.498;13.446;2022-11-27T09:27:10;6.90;99.90
37518;DHT22;23366;52.498;13.446;2022-11-27T09:29:38;6.80;99.90
37518;DHT22;23366;52.498;13.446;2022-11-27T09:32:04;6.80;99.90
37518;DHT22;23366;52.498;13.446;2022-11-27T09:34:29;6.80;99.90
37518;DHT22;23366;52.498;13.446;2022-11-27T09:36:55;6.80;99.90
37518;DHT22;23366;52.498;13.446;2022-11-27T09:39:21;6.80;99.90
37518;DHT22;23366;52.498;13.446;2022-11-27T09:41:58;6.80;99.90
37518;DHT22;23366;52.498;13.446;2022-11-27T09:44:34;6.90;99.90
37518;DHT22;23366;52.498;13.446;2022-11-27T09:47:18;6.90;99.90
37518;DHT22;23366;52.498;13.446;2022-11-27T09:52:45;6.90;99.90
37518;DHT22;23366;52.498;13.446;2022-11-27T09:57:39;7.00;99.90
37518;DHT22;23366;52.498;13.446;2022-11-27T10:00:17;6.80;99.90
37518;DHT22;23366;52.498;13.446;2022-11-27T10:02:43;6.90;99.90
37518;DHT22;23366;52.498;13.446;2022-11-27T10:05:20;6.90;99.90
37518;DHT22;23366;52.498;13.446;2022-11-27T10:08:09;6.90;99.90
37518;DHT22;23366;52.498;13.446;2022-11-27T10:15:50;7.00;99.90
37518;DHT22;23366;52.498;13.446;2022-11-27T10:18:31;7.00;99.90
37518;DHT22;23366;52.498;13.446;2022-11-27T10:26:39;7.00;99.90
37518;DHT22;23366;52.498;13.446;2022-11-27T10:32:14;7.00;99.90
37518;DHT22;23366;52.498;13.446;2022-11-27T10:37:19;7.10;99.90
37518;DHT22;23366;52.498;13.446;2022-11-27T10:39:55;7.10;99.90
37518;DHT22;23366;52.498;13.446;2022-11-27T10:42:32;7.10;99.90
37518;DHT22;23366;52.498;13.446;2022-11-27T10:45:06;7.20;99.90
37518;DHT22;23366;52.498;13.446;2022-11-27T10:47:31;7.30;99.90
37518;DHT22;23366;52.498;13.446;2022-11-27T10:49:57;7.40;99.90
37518;DHT22;23366;52.498;13.446;2022-11-27T10:52:24;7.50;99.90
37518;DHT22;23366;52.498;13.446;2022-11-27T10:55:02;7.50;99.90
37518;DHT22;23366;52.498;13.446;2022-11-27T10:57:34;7.40;99.90
37518;DHT22;23366;52.498;13.446;2022-11-27T11:00:12;7.40;99.90
37518;DHT22;23366;52.498;13.446;2022-11-27T11:02:40;7.40;99.90
37518;DHT22;23366;52.498;13.446;2022-11-27T11:05:19;7.40;99.90
37518;DHT22;23366;52.498;13.446;2022-11-27T11:08:04;7.50;99.90
37518;DHT22;23366;52.498;13.446;2022-11-27T11:10:56;7.50;99.90
37518;DHT22;23366;52.498;13.446;2022-11-27T11:13:24;7.40;99.90
37518;DHT22;23366;52.498;13.446;2022-11-27T11:16:02;7.40;99.90
37518;DHT22;23366;52.498;13.446;2022-11-27T11:18:31;7.50;99.90
37518;DHT22;23366;52.498;13.446;2022-11-27T11:20:59;7.50;99.90
37518;DHT22;23366;52.498;13.446;2022-11-27T11:23:37;7.50;99.90
37518;DHT22;23366;52.498;13.446;2022-11-27T11:28:54;7.50;99.90
37518;DHT22;23366;52.498;13.446;2022-11-27T11:31:26;7.40;99.90
37518;DHT22;23366;52.498;13.446;2022-11-27T11:33:59;7.40;99.90
37518;DHT22;23366;52.498;13.446;2022-11-27T11:36:25;7.40;99.90
37518;DHT22;23366;52.498;13.446;2022-11-27T11:38:51;7.40;99.90
37518;DHT22;23366;52.498;13.446;2022-11-27T11:41:18;7.40;99.90
37518;DHT22;23366;52.498;13.446;2022-11-27T11:44:01;7.50;99.90
37518;DHT22;23366;52.498;13.446;2022-11-27T11:46:28;7.60;99.90
37518;DHT22;23366;52.498;13.446;2022-11-27T11:49:05;7.70;99.90
37518;DHT22;23366;52.498;13.446;2022-11-27T11:57:07;7.80;99.90
37518;DHT22;23366;52.498;13.446;2022-11-27T12:00:04;8.00;99.90
37518;DHT22;23366;52.498;13.446;2022-11-27T12:05:35;8.10;99.90
37518;DHT22;23366;52.498;13.446;2022-11-27T12:08:06;8.10;99.90
37518;DHT22;23366;52.498;13.446;2022-11-27T12:10:42;8.10;99.90
37518;DHT22;23366;52.498;13.446;2022-11-27T12:16:08;8.00;99.90
37518;DHT22;23366;52.498;13.446;2022-11-27T12:21:15;7.90;99.90
37518;DHT22;23366;52.498;13.446;2022-11-27T12:23:57;7.80;99.90
37518;DHT22;23366;52.498;13.446;2022-11-27T12:26:38;7.70;99.90
37518;DHT22;23366;52.498;13.446;2022-11-27T12:35:14;7.50;99.90
37518;DHT22;23366;52.498;13.446;2022-11-27T12:38:17;7.50;99.90
37518;DHT22;23366;52.498;13.446;2022-11-27T12:41:15;7.40;99.90
37518;DHT22;23366;52.498;13.446;2022-11-27T12:43:50;7.40;99.90
37518;DHT22;23366;52.498;13.446;2022-11-27T12:46:24;7.40;99.90
37518;DHT22;23366;52.498;13.446;2022-11-27T12:48:56;7.40;99.90
37518;DHT22;23366;52.498;13.446;2022-11-27T12:51:35;7.40;99.90
37518;DHT22;23366;52.498;13.446;2022-11-27T12:54:05;7.40;99.90
37518;DHT22;23366;52.498;13.446;2022-11-27T12:56:38;7.40;99.90
37518;DHT22;23366;52.498;13.446;2022-11-27T12:59:25;7.40;99.90
37518;DHT22;23366;52.498;13.446;2022-11-27T13:02:18;7.40;99.90
37518;DHT22;23366;52.498;13.446;2022-11-27T13:05:10;7.40;99.90
37518;DHT22;23366;52.498;13.446;2022-11-27T13:08:01;7.40;99.90
37518;DHT22;23366;52.498;13.446;2022-11-27T13:10:46;7.40;99.90
37518;DHT22;23366;52.498;13.446;2022-11-27T13:18:40;7.40;99.90
37518;DHT22;23366;52.498;13.446;2022-11-27T13:21:12;7.40;99.90
37518;DHT22;23366;52.498;13.446;2022-11-27T13:23:38;7.40;99.90
37518;DHT22;23366;52.498;13.446;2022-11-27T13:26:10;7.40;99.90
37518;DHT22;23366;52.498;13.446;2022-11-27T13:28:42;7.40;99.90
37518;DHT22;23366;52.498;13.446;2022-11-27T13:31:17;7.40;99.90
37518;DHT22;23366;52.498;13.446;2022-11-27T13:33:45;7.40;99.90
37518;DHT22;23366;52.498;13.446;2022-11-27T13:36:19;7.40;99.90
37518;DHT22;23366;52.498;13.446;2022-11-27T13:38:53;7.40;99.90
37518;DHT22;23366;52.498;13.446;2022-11-27T13:41:37;7.40;99.90
37518;DHT22;23366;52.498;13.446;2022-11-27T13:44:17;7.30;99.90
37518;DHT22;23366;52.498;13.446;2022-11-27T13:46:45;7.30;99.90
37518;DHT22;23366;52.498;13.446;2022-11-27T13:49:24;7.20;99.90
37518;DHT22;23366;52.498;13.446;2022-11-27T13:51:50;7.20;99.90
37518;DHT22;23366;52.498;13.446;2022-11-27T13:54:18;7.20;99.90
37518;DHT22;23366;52.498;13.446;2022-11-27T13:56:44;7.20;99.90
37518;DHT22;23366;52.498;13.446;2022-11-27T13:59:24;7.20;99.90
37518;DHT22;23366;52.498;13.446;2022-11-27T14:01:59;7.10;99.90
37518;DHT22;23366;52.498;13.446;2022-11-27T14:04:29;7.10;99.90
37518;DHT22;23366;52.498;13.446;2022-11-27T14:07:06;7.10;99.90
37518;DHT22;23366;52.498;13.446;2022-11-27T14:09:47;7.10;99.90
37518;DHT22;23366;52.498;13.446;2022-11-27T14:12:23;7.10;99.90
37518;DHT22;23366;52.498;13.446;2022-11-27T14:15:11;7.00;99.90
37518;DHT22;23366;52.498;13.446;2022-11-27T14:17:47;7.00;99.90
37518;DHT22;23366;52.498;13.446;2022-11-27T14:22:48;7.00;99.90
37518;DHT22;23366;52.498;13.446;2022-11-27T14:25:26;7.00;99.90
37518;DHT22;23366;52.498;13.446;2022-11-27T14:28:15;7.00;99.90
37518;DHT22;23366;52.498;13.446;2022-11-27T14:30:53;7.00;99.90
37518;DHT22;23366;52.498;13.446;2022-11-27T14:33:25;6.90;99.90
37518;DHT22;23366;52.498;13.446;2022-11-27T14:35:55;6.90;99.90
37518;DHT22;23366;52.498;13.446;2022-11-27T14:38:21;7.00;99.90
37518;DHT22;23366;52.498;13.446;2022-11-27T14:40:48;6.90;99.90
37518;DHT22;23366;52.498;13.446;2022-11-27T14:43:20;6.90;99.90
37518;DHT22;23366;52.498;13.446;2022-11-27T14:45:54;6.90;99.90
37518;DHT22;23366;52.498;13.446;2022-11-27T14:48:26;6.90;99.90
37518;DHT22;23366;52.498;13.446;2022-11-27T14:50:52;6.80;99.90
37518;DHT22;23366;52.498;13.446;2022-11-27T14:53:19;6.80;99.90
37518;DHT22;23366;52.498;13.446;2022-11-27T14:55:48;6.70;99.90
37518;DHT22;23366;52.498;13.446;2022-11-27T14:58:23;6.70;99.90
37518;DHT22;23366;52.498;13.446;2022-11-27T15:00:51;6.70;99.90
37518;DHT22;23366;52.498;13.446;2022-11-27T15:03:19;6.70;99.90
37518;DHT22;23366;52.498;13.446;2022-11-27T15:05:54;6.70;99.90
37518;DHT22;23366;52.498;13.446;2022-11-27T15:08:20;6.60;99.90
37518;DHT22;23366;52.498;13.446;2022-11-27T15:10:46;6.60;99.90
37518;DHT22;23366;52.498;13.446;2022-11-27T15:13:21;6.60;99.90
37518;DHT22;23366;52.498;13.446;2022-11-27T15:15:53;6.60;99.90
37518;DHT22;23366;52.498;13.446;2022-11-27T15:18:21;6.60;99.90
37518;DHT22;23366;52.498;13.446;2022-11-27T15:20:48;6.60;99.90
37518;DHT22;23366;52.498;13.446;2022-11-27T15:23:16;6.50;99.90
37518;DHT22;23366;52.498;13.446;2022-11-27T15:25:46;6.50;99.90
37518;DHT22;23366;52.498;13.446;2022-11-27T15:30:49;6.50;99.90
37518;DHT22;23366;52.498;13.446;2022-11-27T15:33:27;6.50;99.90
37518;DHT22;23366;52.498;13.446;2022-11-27T15:36:07;6.50;99.90
37518;DHT22;23366;52.498;13.446;2022-11-27T15:38:39;6.40;99.90
37518;DHT22;23366;52.498;13.446;2022-11-27T15:41:15;6.40;99.90
37518;DHT22;23366;52.498;13.446;2022-11-27T15:43:42;6.40;99.90
37518;DHT22;23366;52.498;13.446;2022-11-27T15:46:11;6.40;99.90
37518;DHT22;23366;52.498;13.446;2022-11-27T15:48:37;6.40;99.90
37518;DHT22;23366;52.498;13.446;2022-11-27T15:51:02;6.40;99.90
37518;DHT22;23366;52.498;13.446;2022-11-27T15:53:28;6.30;99.90
37518;DHT22;23366;52.498;13.446;2022-11-27T15:55:53;6.30;99.90
37518;DHT22;23366;52.498;13.446;2022-11-27T15:58:19;6.30;99.90
37518;DHT22;23366;52.498;13.446;2022-11-27T16:00:44;6.30;99.90
37518;DHT22;23366;52.498;13.446;2022-11-27T16:03:09;6.30;99.90
37518;DHT22;23366;52.498;13.446;2022-11-27T16:05:35;6.20;99.90
37518;DHT22;23366;52.498;13.446;2022-11-27T16:08:00;6.30;99.90
37518;DHT22;23366;52.498;13.446;2022-11-27T16:10:29;6.30;99.90
37518;DHT22;23366;52.498;13.446;2022-11-27T16:12:54;6.20;99.90
37518;DHT22;23366;52.498;13.446;2022-11-27T16:15:21;6.20;99.90
37518;DHT22;23366;52.498;13.446;2022-11-27T16:17:47;6.20;99.90
37518;DHT22;23366;52.498;13.446;2022-11-27T16:20:12;6.20;99.90
37518;DHT22;23366;52.498;13.446;2022-11-27T16:22:38;6.10;99.90
37518;DHT22;23366;52.498;13.446;2022-11-27T16:25:03;6.10;99.90
37518;DHT22;23366;52.498;13.446;2022-11-27T16:27:29;6.10;99.90
37518;DHT22;23366;52.498;13.446;2022-11-27T16:29:54;6.10;99.90
37518;DHT22;23366;52.498;13.446;2022-11-27T16:32:20;6.00;99.90
37518;DHT22;23366;52.498;13.446;2022-11-27T16:34:45;6.10;99.90
37518;DHT22;23366;52.498;13.446;2022-11-27T16:37:11;6.00;99.90
37518;DHT22;23366;52.498;13.446;2022-11-27T16:39:36;6.00;99.90
37518;DHT22;23366;52.498;13.446;2022-11-27T16:42:02;6.00;99.90
37518;DHT22;23366;52.498;13.446;2022-11-27T16:44:27;6.00;99.90
37518;DHT22;23366;52.498;13.446;2022-11-27T16:46:53;6.00;99.90
37518;DHT22;23366;52.498;13.446;2022-11-27T16:49:18;6.00;99.90
37518;DHT22;23366;52.498;13.446;2022-11-27T16:51:44;6.00;99.90
37518;DHT22;23366;52.498;13.446;2022-11-27T16:54:11;6.00;99.90
37518;DHT22;23366;52.498;13.446;2022-11-27T16:56:37;6.00;99.90
37518;DHT22;23366;52.498;13.446;2022-11-27T16:59:06;6.00;99.90
37518;DHT22;23366;52.498;13.446;2022-11-27T17:01:33;6.00;99.90
37518;DHT22;23366;52.498;13.446;2022-11-27T17:04:00;6.00;99.90
37518;DHT22;23366;52.498;13.446;2022-11-27T17:06:30;5.90;99.90
37518;DHT22;23366;52.498;13.446;2022-11-27T17:08:58;5.90;99.90